Miedwie — C6XP5 — position and weather

sailwx.info

Track history (hours):
 
Tides and Currents Weather Stations Pressure Air Temp Water Temp Dewpoint Dewpoint Depression Visibility Wind Speed Wind Dir Waves Ship Positions

Miedwie

Last reported at 2015-Aug-06 01:33 UTC. Time now 2015-Sep-01 20:22 UTC.
Position N 46°30' W 072°14'.
Warning: this ship's position is 26 days out of date.

Length 190 m; draft 8.4 m.

Type: Cargo ship. MMSI: 311018300.

Date/timePositionNaut miles runAvg speedWind from/ knotsBaromVisibWave heightAir tempDewpointWater temp
2015-Aug-06 01:33N 46°30' W 072°14'1312.6
2015-Aug-06 00:33N 46°23' W 072°28'1110.5
2015-Aug-05 23:33N 46°16' W 072°40'1110.8
2015-Aug-05 22:33N 46°11' W 072°54'50 2.6
2015-Aug-05 03:33N 45°29' W 073°31'4 4.2
2015-Aug-05 02:33N 45°24' W 073°32'2 1.6
2015-Aug-05 01:32N 45°24' W 073°35'5 5.0
2015-Aug-05 00:33N 45°25' W 073°41'10 9.5
2015-Aug-04 23:33N 45°20' W 073°53'2 2.4
2015-Aug-04 22:33N 45°18' W 073°55'1 1.2
2015-Aug-04 21:34N 45°17' W 073°56'8 8.0
2015-Aug-04 20:32N 45°13' W 074°07'229 9.1
2015-Aug-03 19:31N 43°24' W 078°47'1212.4
2015-Aug-03 18:33N 43°21' W 079°03'1111.5
2015-Aug-03 17:33N 43°16' W 079°17'1 1.2
2015-Aug-03 16:31N 43°15' W 079°18'0 0.0
2015-Aug-03 15:31N 43°15' W 079°18'0 0.0
2015-Aug-03 14:31N 43°15' W 079°18'0 0.0
2015-Aug-03 13:28N 43°15' W 079°18'0 0.0
2015-Aug-03 12:31N 43°15' W 079°18'0 0.0
2015-Aug-03 11:31N 43°15' W 079°18'0 0.0
2015-Aug-03 10:31N 43°15' W 079°18'0 0.0
2015-Aug-03 09:31N 43°15' W 079°18'0 0.1
2015-Aug-03 08:31N 43°15' W 079°18'0 0.0
2015-Aug-03 07:31N 43°15' W 079°18'0 0.0
2015-Aug-03 06:31N 43°15' W 079°18'0 0.1
2015-Aug-03 05:31N 43°15' W 079°18'0 0.0
2015-Aug-03 04:31N 43°15' W 079°18'0 0.1
2015-Aug-03 03:31N 43°14' W 079°18'0 0.2
2015-Aug-03 02:31N 43°15' W 079°18'0 0.1
2015-Aug-03 01:31N 43°15' W 079°18'0 0.2
2015-Aug-03 00:31N 43°14' W 079°18'0 0.2
2015-Aug-02 23:31N 43°14' W 079°18'3 3.6
2015-Aug-02 22:33N 43°15' W 079°13'2 2.0
2015-Aug-02 21:33N 43°13' W 079°13'1 1.4
2015-Aug-02 20:33N 43°12' W 079°12'2 2.0
2015-Aug-02 19:33N 43°10' W 079°12'1 0.8
2015-Aug-02 18:33N 43°09' W 079°12'1 0.7
2015-Aug-02 17:33N 43°08' W 079°12'0 0.2
2015-Aug-02 16:33N 43°08' W 079°12'1 0.5
2015-Aug-02 15:33N 43°07' W 079°12'1 1.1
2015-Aug-02 14:33N 43°06' W 079°12'27 5.3
2015-Aug-02 09:31N 42°43' W 079°29'1212.1
2015-Aug-02 08:33N 42°36' W 079°41'1212.2
2015-Aug-02 07:33N 42°29' W 079°55'1212.2
2015-Aug-02 06:33N 42°24' W 080°10'1212.3
2015-Aug-02 05:33N 42°20' W 080°26'1212.1
2015-Aug-02 04:33N 42°16' W 080°41'303 7.2
2015-Jul-31 10:33N 46°28' W 084°34'9 8.7
2015-Jul-31 09:33N 46°35' W 084°43'1311.7
2015-Jul-31 08:28N 46°45' W 084°53'  
Track history (hours):
 
Tides and Currents Weather Stations Pressure Air Temp Water Temp Dewpoint Dewpoint Depression Visibility Wind Speed Wind Dir Waves Ship Positions

Miedwie

Last reported at 2015-Aug-06 01:33 UTC. Time now 2015-Sep-01 20:22 UTC.
Position N 46°30' W 072°14'.
Warning: this ship's position is 26 days out of date.

Length 190 m; draft 8.4 m.

Type: Cargo ship. MMSI: 311018300.

Date/timePositionNaut miles runAvg speedWind from/ knotsBaromVisibWave heightAir tempDewpointWater temp
2015-Aug-06 01:33N 46°30' W 072°14'1312.6
2015-Aug-06 00:33N 46°23' W 072°28'1110.5
2015-Aug-05 23:33N 46°16' W 072°40'1110.8
2015-Aug-05 22:33N 46°11' W 072°54'50 2.6
2015-Aug-05 03:33N 45°29' W 073°31'4 4.2
2015-Aug-05 02:33N 45°24' W 073°32'2 1.6
2015-Aug-05 01:32N 45°24' W 073°35'5 5.0
2015-Aug-05 00:33N 45°25' W 073°41'10 9.5
2015-Aug-04 23:33N 45°20' W 073°53'2 2.4
2015-Aug-04 22:33N 45°18' W 073°55'1 1.2
2015-Aug-04 21:34N 45°17' W 073°56'8 8.0
2015-Aug-04 20:32N 45°13' W 074°07'229 9.1
2015-Aug-03 19:31N 43°24' W 078°47'1212.4
2015-Aug-03 18:33N 43°21' W 079°03'1111.5
2015-Aug-03 17:33N 43°16' W 079°17'1 1.2
2015-Aug-03 16:31N 43°15' W 079°18'0 0.0
2015-Aug-03 15:31N 43°15' W 079°18'0 0.0
2015-Aug-03 14:31N 43°15' W 079°18'0 0.0
2015-Aug-03 13:28N 43°15' W 079°18'0 0.0
2015-Aug-03 12:31N 43°15' W 079°18'0 0.0
2015-Aug-03 11:31N 43°15' W 079°18'0 0.0
2015-Aug-03 10:31N 43°15' W 079°18'0 0.0
2015-Aug-03 09:31N 43°15' W 079°18'0 0.1
2015-Aug-03 08:31N 43°15' W 079°18'0 0.0
2015-Aug-03 07:31N 43°15' W 079°18'0 0.0
2015-Aug-03 06:31N 43°15' W 079°18'0 0.1
2015-Aug-03 05:31N 43°15' W 079°18'0 0.0
2015-Aug-03 04:31N 43°15' W 079°18'0 0.1
2015-Aug-03 03:31N 43°14' W 079°18'0 0.2
2015-Aug-03 02:31N 43°15' W 079°18'0 0.1
2015-Aug-03 01:31N 43°15' W 079°18'0 0.2
2015-Aug-03 00:31N 43°14' W 079°18'0 0.2
2015-Aug-02 23:31N 43°14' W 079°18'3 3.6
2015-Aug-02 22:33N 43°15' W 079°13'2 2.0
2015-Aug-02 21:33N 43°13' W 079°13'1 1.4
2015-Aug-02 20:33N 43°12' W 079°12'2 2.0
2015-Aug-02 19:33N 43°10' W 079°12'1 0.8
2015-Aug-02 18:33N 43°09' W 079°12'1 0.7
2015-Aug-02 17:33N 43°08' W 079°12'0 0.2
2015-Aug-02 16:33N 43°08' W 079°12'1 0.5
2015-Aug-02 15:33N 43°07' W 079°12'1 1.1
2015-Aug-02 14:33N 43°06' W 079°12'27 5.3
2015-Aug-02 09:31N 42°43' W 079°29'1212.1
2015-Aug-02 08:33N 42°36' W 079°41'1212.2
2015-Aug-02 07:33N 42°29' W 079°55'1212.2
2015-Aug-02 06:33N 42°24' W 080°10'1212.3
2015-Aug-02 05:33N 42°20' W 080°26'1212.1
2015-Aug-02 04:33N 42°16' W 080°41'303 7.2
2015-Jul-31 10:33N 46°28' W 084°34'9 8.7
2015-Jul-31 09:33N 46°35' W 084°43'1311.7
2015-Jul-31 08:28N 46°45' W 084°53'  

Dump ship's entire track history